createdAt,value
2018-11-02T00:01:41.639Z,48.70
2018-11-02T00:06:48.510Z,49.30
2018-11-02T00:09:16.785Z,48.70
2018-11-02T00:11:44.881Z,48.70
2018-11-02T00:14:13.030Z,48.70
2018-11-02T00:16:41.121Z,48.70
2018-11-02T00:19:09.481Z,48.70
2018-11-02T00:21:37.730Z,48.70
2018-11-02T00:24:05.941Z,48.70
2018-11-02T00:26:34.110Z,48.70
2018-11-02T00:29:02.375Z,48.70
2018-11-02T00:31:30.476Z,48.70
2018-11-02T00:33:58.621Z,48.70
2018-11-02T00:36:26.776Z,48.70
2018-11-02T00:38:54.925Z,48.70
2018-11-02T00:41:23.059Z,48.70
2018-11-02T00:43:51.261Z,49.30
2018-11-02T00:46:19.372Z,48.70
2018-11-02T00:48:47.583Z,48.70
2018-11-02T00:51:15.708Z,48.70
2018-11-02T00:53:43.884Z,49.30
2018-11-02T00:56:11.963Z,48.70
2018-11-02T00:58:40.154Z,49.30
2018-11-02T01:01:08.245Z,48.70
2018-11-02T01:03:36.456Z,48.70
2018-11-02T01:06:04.810Z,48.70
2018-11-02T01:08:32.908Z,48.60
2018-11-02T01:11:01.001Z,48.60
2018-11-02T01:13:29.231Z,48.70
2018-11-02T01:15:57.295Z,48.70
2018-11-02T01:21:00.077Z,48.60
2018-11-02T01:23:28.223Z,48.60
2018-11-02T01:25:56.392Z,48.60
2018-11-02T01:28:24.605Z,48.60
2018-11-02T01:30:52.737Z,48.60
2018-11-02T01:33:25.144Z,48.60
2018-11-02T01:35:53.375Z,48.60
2018-11-02T01:38:21.509Z,48.60
2018-11-02T01:40:49.661Z,48.50
2018-11-02T01:43:17.759Z,48.60
2018-11-02T01:45:45.877Z,48.60
2018-11-02T01:48:14.091Z,48.60
2018-11-02T01:50:42.258Z,48.60
2018-11-02T01:53:10.512Z,48.60
2018-11-02T01:55:38.839Z,48.60
2018-11-02T01:58:07.045Z,48.50
2018-11-02T02:00:35.160Z,48.50
2018-11-02T02:03:03.269Z,48.50
2018-11-02T02:05:31.505Z,48.50
2018-11-02T02:07:59.789Z,48.50
2018-11-02T02:10:27.945Z,48.50
2018-11-02T02:12:56.107Z,48.50
2018-11-02T02:15:24.290Z,48.50
2018-11-02T02:17:52.478Z,48.50
2018-11-02T02:20:20.579Z,48.50
2018-11-02T02:22:48.677Z,48.50
2018-11-02T02:25:16.785Z,48.50
2018-11-02T02:27:44.922Z,49.20
2018-11-02T02:30:14.040Z,48.50
2018-11-02T02:32:42.432Z,48.50
2018-11-02T02:35:11.103Z,48.50
2018-11-02T02:37:40.291Z,48.50
2018-11-02T02:40:09.936Z,48.50
2018-11-02T02:42:38.685Z,48.80
2018-11-02T02:45:07.191Z,48.50
2018-11-02T02:47:35.440Z,49.10
2018-11-02T02:50:03.744Z,48.40
2018-11-02T02:52:32.149Z,48.40
2018-11-02T02:55:00.368Z,48.40
2018-11-02T02:57:28.598Z,48.40
2018-11-02T02:59:56.753Z,48.40
2018-11-02T03:02:24.872Z,48.40
2018-11-02T03:04:53.022Z,48.40
2018-11-02T03:07:21.130Z,48.40
2018-11-02T03:09:49.259Z,48.40
2018-11-02T03:12:17.342Z,48.40
2018-11-02T03:14:45.506Z,48.40
2018-11-02T03:17:13.618Z,48.40
2018-11-02T03:19:41.763Z,48.40
2018-11-02T03:22:09.924Z,48.40
2018-11-02T03:24:38.048Z,48.30
2018-11-02T03:27:06.154Z,48.30
2018-11-02T03:29:34.242Z,48.30
2018-11-02T03:32:02.373Z,48.30
2018-11-02T03:34:30.501Z,48.30
2018-11-02T03:36:58.597Z,48.30
2018-11-02T03:39:26.729Z,48.30
2018-11-02T03:41:54.857Z,48.30
2018-11-02T03:44:22.981Z,48.30
2018-11-02T03:46:51.089Z,48.30
2018-11-02T03:49:19.245Z,48.30
2018-11-02T03:51:47.410Z,48.30
2018-11-02T03:54:15.677Z,48.30
2018-11-02T03:56:44.051Z,48.90
2018-11-02T03:59:12.346Z,48.30
2018-11-02T04:01:40.497Z,48.30
2018-11-02T04:04:09.061Z,48.30
2018-11-02T04:06:37.164Z,48.30
2018-11-02T04:09:06.767Z,48.90
2018-11-02T04:11:35.280Z,48.20
2018-11-02T04:14:03.406Z,48.30
2018-11-02T04:16:32.101Z,48.20
2018-11-02T04:19:00.239Z,48.20
2018-11-02T04:21:28.385Z,48.20
2018-11-02T04:23:56.493Z,48.50
2018-11-02T04:26:24.640Z,48.30
2018-11-02T04:28:52.745Z,48.20
2018-11-02T04:31:20.899Z,48.20
2018-11-02T04:33:49.105Z,48.20
2018-11-02T04:36:17.228Z,48.20
2018-11-02T04:38:45.356Z,48.20
2018-11-02T04:41:13.469Z,48.20
2018-11-02T04:43:41.617Z,48.10
2018-11-02T04:46:09.948Z,48.10
2018-11-02T04:48:38.241Z,48.10
2018-11-02T04:51:06.539Z,48.10
2018-11-02T04:53:34.826Z,48.20
2018-11-02T04:56:03.857Z,48.10
2018-11-02T04:58:32.735Z,48.10
2018-11-02T05:01:01.325Z,48.10
2018-11-02T05:03:29.626Z,48.10
2018-11-02T05:05:58.356Z,48.10
2018-11-02T05:08:27.887Z,48.10
2018-11-02T05:10:56.200Z,48.10
2018-11-02T05:13:25.145Z,48.10
2018-11-02T05:15:53.560Z,48.70
2018-11-02T05:18:21.764Z,48.10
2018-11-02T05:20:49.922Z,48.70
2018-11-02T05:23:18.081Z,48.10
2018-11-02T05:25:46.501Z,48.10
2018-11-02T05:28:14.620Z,48.10
2018-11-02T05:30:42.831Z,48.10
2018-11-02T05:33:11.067Z,48.00
2018-11-02T05:35:39.372Z,48.10
2018-11-02T05:38:07.460Z,48.20
2018-11-02T05:40:36.170Z,48.00
2018-11-02T05:43:04.464Z,48.00
2018-11-02T05:45:32.743Z,48.00
2018-11-02T05:48:01.128Z,47.90
2018-11-02T05:50:29.600Z,47.90
2018-11-02T05:52:58.099Z,47.90
2018-11-02T05:55:26.412Z,47.90
2018-11-02T05:57:54.651Z,47.90
2018-11-02T06:00:22.733Z,47.90
2018-11-02T06:02:50.941Z,47.90
2018-11-02T06:05:19.181Z,47.90
2018-11-02T06:07:47.359Z,47.90
2018-11-02T06:10:15.740Z,47.90
2018-11-02T06:12:43.982Z,47.90
2018-11-02T06:15:12.392Z,48.50
2018-11-02T06:17:40.593Z,47.90
2018-11-02T06:20:09.693Z,47.90
2018-11-02T06:22:38.067Z,47.90
2018-11-02T06:25:07.792Z,47.80
2018-11-02T06:27:36.258Z,47.90
2018-11-02T06:30:05.013Z,47.80
2018-11-02T06:32:33.425Z,47.80
2018-11-02T06:35:01.519Z,47.90
2018-11-02T06:37:29.667Z,47.80
2018-11-02T06:39:58.046Z,47.90
2018-11-02T06:42:26.445Z,47.80
2018-11-02T06:44:55.004Z,47.80
2018-11-02T06:47:23.064Z,47.80
2018-11-02T06:49:51.297Z,47.90
2018-11-02T06:52:19.504Z,48.20
2018-11-02T06:54:47.842Z,48.40
2018-11-02T06:57:16.141Z,47.80
2018-11-02T06:59:44.581Z,47.80
2018-11-02T07:02:19.379Z,47.80
2018-11-02T07:04:47.757Z,47.80
2018-11-02T07:07:15.989Z,47.80
2018-11-02T07:09:44.025Z,47.80
2018-11-02T07:12:12.163Z,47.80
2018-11-02T07:14:40.371Z,47.80
2018-11-02T07:17:08.584Z,47.80
2018-11-02T07:19:36.708Z,47.80
2018-11-02T07:22:05.193Z,47.80
2018-11-02T07:24:33.712Z,47.80
2018-11-02T07:27:01.753Z,47.90
2018-11-02T07:29:29.930Z,47.80
2018-11-02T07:31:58.197Z,47.80
2018-11-02T07:34:26.386Z,47.80
2018-11-02T07:36:54.441Z,47.80
2018-11-02T07:39:22.675Z,47.70
2018-11-02T07:41:50.789Z,47.70
2018-11-02T07:44:19.270Z,47.70
2018-11-02T07:46:47.613Z,48.30
2018-11-02T07:49:15.999Z,47.70
2018-11-02T07:51:44.135Z,47.70
2018-11-02T07:54:12.675Z,47.60
2018-11-02T07:56:42.195Z,47.60
2018-11-02T07:59:10.375Z,47.60
2018-11-02T08:01:38.533Z,47.60
2018-11-02T08:04:06.657Z,47.50
2018-11-02T08:06:34.834Z,47.50
2018-11-02T08:09:03.200Z,47.60
2018-11-02T08:11:31.528Z,47.60
2018-11-02T08:13:59.777Z,47.60
2018-11-02T08:16:27.861Z,47.50
2018-11-02T08:18:55.968Z,47.50
2018-11-02T08:21:24.261Z,47.50
2018-11-02T08:23:52.469Z,47.50
2018-11-02T08:26:20.575Z,47.50
2018-11-02T08:28:48.705Z,47.50
2018-11-02T08:31:16.895Z,47.50
2018-11-02T08:33:45.006Z,47.50
2018-11-02T08:36:13.438Z,47.50
2018-11-02T08:38:41.553Z,47.50
2018-11-02T08:41:09.723Z,47.50
2018-11-02T08:43:37.920Z,47.50
2018-11-02T08:46:06.071Z,47.50
2018-11-02T08:48:34.170Z,47.50
2018-11-02T08:51:02.425Z,47.50
2018-11-02T08:53:30.517Z,47.50
2018-11-02T08:55:58.694Z,47.50
2018-11-02T08:58:27.026Z,47.50
2018-11-02T09:00:55.026Z,47.40
2018-11-02T09:03:23.224Z,47.40
2018-11-02T09:05:51.461Z,47.40
2018-11-02T09:08:19.559Z,47.40
2018-11-02T09:10:47.834Z,47.40
2018-11-02T09:13:15.965Z,47.40
2018-11-02T09:15:45.329Z,47.40
2018-11-02T09:18:14.300Z,47.30
2018-11-02T09:20:42.487Z,47.30
2018-11-02T09:23:10.690Z,47.40
2018-11-02T09:25:38.827Z,47.30
2018-11-02T09:28:07.994Z,47.30
2018-11-02T09:30:36.160Z,47.30
2018-11-02T09:33:04.364Z,47.30
2018-11-02T09:35:32.644Z,47.30
2018-11-02T09:38:00.796Z,47.30
2018-11-02T09:40:29.338Z,47.30
2018-11-02T09:42:57.597Z,47.30
2018-11-02T09:45:25.873Z,47.30
2018-11-02T09:47:54.047Z,47.30
2018-11-02T09:50:22.449Z,47.30
2018-11-02T09:52:50.689Z,47.20
2018-11-02T09:55:18.915Z,47.20
2018-11-02T09:57:47.175Z,47.20
2018-11-02T10:00:15.832Z,47.10
2018-11-02T10:02:44.573Z,47.10
2018-11-02T10:05:13.194Z,47.10
2018-11-02T10:07:41.869Z,47.10
2018-11-02T10:10:11.037Z,47.10
2018-11-02T10:12:39.145Z,47.10
2018-11-02T10:15:10.673Z,47.00
2018-11-02T10:17:40.032Z,47.00
2018-11-02T10:20:09.445Z,46.80
2018-11-02T10:22:37.872Z,46.80
2018-11-02T10:25:06.406Z,46.70
2018-11-02T10:27:34.953Z,46.60
2018-11-02T10:30:03.472Z,46.60
2018-11-02T10:32:31.698Z,46.70
2018-11-02T10:35:00.336Z,46.50
2018-11-02T10:37:28.553Z,46.30
2018-11-02T10:39:56.652Z,45.90
2018-11-02T10:42:25.167Z,45.70
2018-11-02T10:44:53.303Z,45.40
2018-11-02T10:47:21.688Z,45.00
2018-11-02T10:49:49.856Z,44.60
2018-11-02T10:52:17.963Z,44.30
2018-11-02T10:54:46.243Z,44.80
2018-11-02T10:57:14.590Z,43.80
2018-11-02T10:59:43.049Z,43.50
2018-11-02T11:02:45.116Z,43.10
2018-11-02T11:05:13.285Z,42.90
2018-11-02T11:07:41.395Z,42.80
2018-11-02T11:10:10.428Z,42.70
2018-11-02T11:12:39.582Z,43.00
2018-11-02T11:15:07.631Z,43.00
2018-11-02T11:17:36.011Z,43.00
2018-11-02T11:20:05.309Z,43.20
2018-11-02T11:22:33.558Z,43.20
2018-11-02T11:25:01.642Z,43.50
2018-11-02T11:27:29.818Z,43.70
2018-11-02T11:29:58.157Z,43.80
2018-11-02T11:32:26.541Z,43.70
2018-11-02T11:34:54.737Z,43.70
2018-11-02T11:37:22.908Z,43.90
2018-11-02T11:39:51.263Z,44.10
2018-11-02T11:42:19.331Z,44.00
2018-11-02T11:44:48.506Z,44.30
2018-11-02T11:47:16.614Z,44.10
2018-11-02T11:49:44.734Z,44.20
2018-11-02T11:52:12.886Z,44.10
2018-11-02T11:54:41.124Z,44.20
2018-11-02T11:57:09.697Z,44.20
2018-11-02T11:59:37.924Z,44.20
2018-11-02T12:02:06.191Z,44.20
2018-11-02T12:04:34.523Z,44.10
2018-11-02T12:07:02.634Z,44.20
2018-11-02T12:09:31.063Z,44.40
2018-11-02T12:11:59.201Z,44.60
2018-11-02T12:14:27.318Z,44.80
2018-11-02T12:16:55.557Z,45.10
2018-11-02T12:19:23.894Z,45.10
2018-11-02T12:21:52.163Z,45.10
2018-11-02T12:24:20.293Z,45.00
2018-11-02T12:26:48.452Z,45.10
2018-11-02T12:29:16.814Z,45.10
2018-11-02T12:31:45.093Z,45.10
2018-11-02T12:34:13.588Z,45.10
2018-11-02T12:36:41.747Z,45.00
2018-11-02T12:39:09.948Z,45.00
2018-11-02T12:41:38.702Z,44.90
2018-11-02T12:44:07.233Z,44.90
2018-11-02T12:46:35.690Z,45.20
2018-11-02T12:49:04.054Z,45.20
2018-11-02T12:51:32.084Z,45.30
2018-11-02T12:54:00.245Z,45.50
2018-11-02T12:56:28.369Z,45.40
2018-11-02T12:58:56.856Z,44.50
2018-11-02T13:01:26.918Z,44.60
2018-11-02T13:03:55.080Z,43.70
2018-11-02T13:06:23.281Z,43.10
2018-11-02T13:08:51.580Z,42.80
2018-11-02T13:11:19.808Z,42.30
2018-11-02T13:13:48.085Z,42.00
2018-11-02T13:16:16.365Z,41.80
2018-11-02T13:18:44.640Z,42.00
2018-11-02T13:21:12.904Z,42.20
2018-11-02T13:23:41.101Z,42.40
2018-11-02T13:26:09.606Z,42.50
2018-11-02T13:28:37.637Z,42.50
2018-11-02T13:31:06.066Z,42.80
2018-11-02T13:33:34.274Z,42.00
2018-11-02T13:36:03.141Z,42.00
2018-11-02T13:38:31.315Z,42.00
2018-11-02T13:40:59.477Z,42.10
2018-11-02T13:43:27.892Z,42.00
2018-11-02T13:45:56.154Z,42.20
2018-11-02T13:48:24.365Z,43.80
2018-11-02T13:50:52.530Z,43.60
2018-11-02T13:53:20.765Z,43.90
2018-11-02T13:55:49.010Z,44.10
2018-11-02T13:58:17.165Z,44.30
2018-11-02T14:03:24.053Z,44.90
2018-11-02T14:05:52.230Z,45.20
2018-11-02T14:08:20.495Z,45.50
2018-11-02T14:10:48.745Z,45.90
2018-11-02T14:13:16.944Z,45.50
2018-11-02T14:15:45.125Z,45.70
2018-11-02T14:18:13.284Z,46.20
2018-11-02T14:20:41.529Z,47.20
2018-11-02T14:23:09.626Z,46.60
2018-11-02T14:25:37.889Z,47.00
2018-11-02T14:28:06.049Z,47.00
2018-11-02T14:30:34.375Z,47.50
2018-11-02T14:33:02.705Z,47.30
2018-11-02T14:35:31.088Z,47.70
2018-11-02T14:37:59.342Z,46.90
2018-11-02T14:40:27.516Z,47.00
2018-11-02T14:42:55.877Z,47.40
2018-11-02T14:45:24.168Z,47.30
2018-11-02T14:47:52.294Z,47.60
2018-11-02T14:50:20.456Z,47.70
2018-11-02T14:52:48.605Z,48.40
2018-11-02T14:55:16.890Z,48.00
2018-11-02T14:57:45.179Z,48.00
2018-11-02T15:00:13.437Z,47.60
2018-11-02T15:02:42.120Z,47.60
2018-11-02T15:05:11.735Z,47.70
2018-11-02T15:07:40.373Z,47.40
2018-11-02T15:10:08.516Z,46.40
2018-11-02T15:12:36.971Z,46.70
2018-11-02T15:15:05.484Z,46.60
2018-11-02T15:17:33.623Z,45.90
2018-11-02T15:20:01.781Z,46.00
2018-11-02T15:22:30.077Z,46.10
2018-11-02T15:24:58.739Z,46.50
2018-11-02T15:27:27.347Z,46.50
2018-11-02T15:29:55.499Z,46.30
2018-11-02T15:32:24.201Z,46.30
2018-11-02T15:34:52.301Z,46.40
2018-11-02T15:37:20.628Z,46.70
2018-11-02T15:39:48.859Z,46.60
2018-11-02T15:42:16.981Z,46.50
2018-11-02T15:44:45.247Z,46.60
2018-11-02T15:47:13.316Z,46.50
2018-11-02T15:49:41.449Z,46.50
2018-11-02T15:52:09.773Z,46.30
2018-11-02T15:54:38.050Z,46.90
2018-11-02T15:57:06.293Z,45.90
2018-11-02T15:59:34.516Z,45.60
2018-11-02T16:02:02.653Z,46.20
2018-11-02T16:04:30.909Z,46.00
2018-11-02T16:06:59.162Z,46.00
2018-11-02T16:09:27.256Z,45.90
2018-11-02T16:11:55.545Z,45.80
2018-11-02T16:14:23.783Z,46.20
2018-11-02T16:16:51.819Z,46.50
2018-11-02T16:19:20.030Z,47.00
2018-11-02T16:21:48.172Z,46.80
2018-11-02T16:24:16.303Z,46.80
2018-11-02T16:26:44.587Z,47.20
2018-11-02T16:29:12.837Z,47.00
2018-11-02T16:31:40.975Z,46.90
2018-11-02T16:34:09.269Z,47.00
2018-11-02T16:36:37.825Z,46.90
2018-11-02T16:39:09.423Z,47.00
2018-11-02T16:41:37.830Z,47.20
2018-11-02T16:44:06.149Z,47.10
2018-11-02T16:46:34.248Z,47.20
2018-11-02T16:49:02.649Z,47.00
2018-11-02T16:51:31.084Z,46.90
2018-11-02T16:53:59.493Z,46.90
2018-11-02T16:56:27.877Z,46.90
2018-11-02T16:58:55.959Z,47.10
2018-11-02T17:01:24.113Z,47.00
2018-11-02T17:03:52.381Z,47.30
2018-11-02T17:06:20.485Z,46.90
2018-11-02T17:08:48.749Z,46.80
2018-11-02T17:11:17.101Z,46.50
2018-11-02T17:13:45.315Z,46.70
2018-11-02T17:16:13.971Z,46.40
2018-11-02T17:18:42.244Z,46.80
2018-11-02T17:21:10.431Z,46.70
2018-11-02T17:23:38.792Z,46.20
2018-11-02T17:26:07.013Z,46.20
2018-11-02T17:28:35.362Z,46.00
2018-11-02T17:31:03.558Z,46.00
2018-11-02T17:33:31.720Z,46.20
2018-11-02T17:35:59.934Z,46.30
2018-11-02T17:38:28.442Z,46.30
2018-11-02T17:40:56.613Z,46.20
2018-11-02T17:43:24.977Z,46.50
2018-11-02T17:45:53.096Z,46.30
2018-11-02T17:48:21.573Z,46.40
2018-11-02T17:50:49.729Z,46.40
2018-11-02T17:53:17.987Z,46.20
2018-11-02T17:55:46.142Z,46.10
2018-11-02T17:58:14.285Z,45.40
2018-11-02T18:00:42.453Z,46.00
2018-11-02T18:03:10.650Z,45.50
2018-11-02T18:05:38.934Z,45.50
2018-11-02T18:08:07.153Z,45.40
2018-11-02T18:10:35.342Z,45.10
2018-11-02T18:13:03.477Z,45.00
2018-11-02T18:15:31.767Z,45.40
2018-11-02T18:17:59.930Z,45.50
2018-11-02T18:20:28.117Z,45.10
2018-11-02T18:22:57.033Z,45.00
2018-11-02T18:25:25.732Z,44.90
2018-11-02T18:27:53.910Z,44.90
2018-11-02T18:30:22.068Z,44.80
2018-11-02T18:32:50.270Z,44.60
2018-11-02T18:35:18.572Z,44.60
2018-11-02T18:37:46.726Z,44.50
2018-11-02T18:40:14.878Z,44.60
2018-11-02T18:42:44.526Z,44.70
2018-11-02T18:45:13.854Z,45.20
2018-11-02T18:47:45.334Z,44.50
2018-11-02T18:50:15.088Z,44.50
2018-11-02T18:52:43.264Z,44.60
2018-11-02T18:55:11.443Z,44.00
2018-11-02T18:57:40.862Z,44.00
2018-11-02T19:00:10.206Z,44.20
2018-11-02T19:02:38.522Z,44.20
2018-11-02T19:05:10.515Z,44.10
2018-11-02T19:07:38.963Z,44.00
2018-11-02T19:10:08.161Z,43.70
2018-11-02T19:12:36.550Z,43.50
2018-11-02T19:15:06.226Z,43.70
2018-11-02T19:17:34.334Z,43.50
2018-11-02T19:20:02.706Z,43.30
2018-11-02T19:22:30.675Z,43.30
2018-11-02T19:24:59.725Z,43.10
2018-11-02T19:27:27.984Z,42.90
2018-11-02T19:29:56.235Z,42.90
2018-11-02T19:32:24.406Z,42.80
2018-11-02T19:34:52.898Z,42.80
2018-11-02T19:37:21.318Z,42.80
2018-11-02T19:39:49.425Z,42.60
2018-11-02T19:42:17.653Z,42.50
2018-11-02T19:44:45.797Z,42.50
2018-11-02T19:47:13.952Z,42.40
2018-11-02T19:49:42.069Z,42.40
2018-11-02T19:52:10.215Z,42.40
2018-11-02T19:54:38.348Z,42.20
2018-11-02T19:57:06.959Z,42.20
2018-11-02T19:59:35.180Z,42.20
2018-11-02T20:02:03.618Z,42.20
2018-11-02T20:04:31.901Z,42.10
2018-11-02T20:07:00.332Z,42.10
2018-11-02T20:09:28.598Z,42.00
2018-11-02T20:11:56.678Z,42.10
2018-11-02T20:14:25.001Z,42.10
2018-11-02T20:16:53.145Z,42.10
2018-11-02T20:19:21.401Z,42.10
2018-11-02T20:21:49.537Z,42.10
2018-11-02T20:24:18.176Z,42.10
2018-11-02T20:26:46.713Z,42.10
2018-11-02T20:29:14.969Z,42.10
2018-11-02T20:31:45.990Z,42.10
2018-11-02T20:34:14.205Z,42.10
2018-11-02T20:36:42.353Z,42.10
2018-11-02T20:39:11.352Z,42.10
2018-11-02T20:41:39.523Z,42.20
2018-11-02T20:44:07.981Z,42.90
2018-11-02T20:46:36.847Z,42.30
2018-11-02T20:49:05.272Z,42.20
2018-11-02T20:51:33.445Z,42.10
2018-11-02T20:54:01.628Z,42.10
2018-11-02T20:56:29.919Z,42.20
2018-11-02T20:58:58.172Z,42.20
2018-11-02T21:01:26.353Z,42.20
2018-11-02T21:03:54.567Z,42.30
2018-11-02T21:06:22.707Z,42.30
2018-11-02T21:08:50.892Z,42.40
2018-11-02T21:11:18.981Z,42.40
2018-11-02T21:13:47.173Z,42.40
2018-11-02T21:16:15.376Z,42.50
2018-11-02T21:18:43.894Z,42.60
2018-11-02T21:21:12.050Z,42.70
2018-11-02T21:23:40.221Z,42.70
2018-11-02T21:26:08.613Z,42.80
2018-11-02T21:28:36.964Z,42.90
2018-11-02T21:31:05.568Z,43.00
2018-11-02T21:33:33.753Z,43.00
2018-11-02T21:36:01.964Z,43.10
2018-11-02T21:38:30.132Z,43.20
2018-11-02T21:40:58.261Z,43.20
2018-11-02T21:43:26.411Z,43.30
2018-11-02T21:45:54.519Z,43.40
2018-11-02T21:48:22.780Z,43.40
2018-11-02T21:50:51.000Z,43.50
2018-11-02T21:53:19.173Z,43.50
2018-11-02T21:55:47.306Z,43.50
2018-11-02T21:58:15.423Z,43.50
2018-11-02T22:00:43.542Z,43.60
2018-11-02T22:03:11.857Z,43.50
2018-11-02T22:05:40.292Z,43.50
2018-11-02T22:08:08.366Z,43.50
2018-11-02T22:10:36.491Z,43.60
2018-11-02T22:13:04.853Z,43.60
2018-11-02T22:15:32.881Z,43.60
2018-11-02T22:18:01.053Z,43.50
2018-11-02T22:20:29.669Z,43.50
2018-11-02T22:22:57.829Z,43.50
2018-11-02T22:25:25.950Z,43.40
2018-11-02T22:27:54.312Z,43.50
2018-11-02T22:30:22.468Z,43.50
2018-11-02T22:32:50.606Z,43.50
2018-11-02T22:35:18.753Z,43.50
2018-11-02T22:37:47.111Z,43.50
2018-11-02T22:40:15.443Z,43.50
2018-11-02T22:42:44.032Z,43.40
2018-11-02T22:45:13.461Z,43.40
2018-11-02T22:47:42.558Z,43.40
2018-11-02T22:50:10.865Z,43.40
2018-11-02T22:52:38.980Z,43.30
2018-11-02T22:55:07.829Z,43.30
2018-11-02T22:57:35.955Z,43.30
2018-11-02T23:00:07.305Z,43.30
2018-11-02T23:02:35.574Z,43.20
2018-11-02T23:05:03.733Z,43.20
2018-11-02T23:07:31.825Z,43.20
2018-11-02T23:09:59.977Z,43.10
2018-11-02T23:12:28.098Z,43.20
2018-11-02T23:14:56.368Z,43.10
2018-11-02T23:17:24.496Z,43.10
2018-11-02T23:19:52.764Z,43.00
2018-11-02T23:22:21.299Z,42.90
2018-11-02T23:24:49.428Z,42.80
2018-11-02T23:27:17.583Z,42.80
2018-11-02T23:29:46.061Z,42.70
2018-11-02T23:32:14.277Z,42.60
2018-11-02T23:34:42.387Z,42.50
2018-11-02T23:37:10.677Z,42.40
2018-11-02T23:39:39.008Z,42.30
2018-11-02T23:42:07.312Z,42.20
2018-11-02T23:44:35.495Z,42.10
2018-11-02T23:47:03.682Z,42.10
2018-11-02T23:49:32.110Z,42.00
2018-11-02T23:52:00.307Z,42.00
2018-11-02T23:54:28.510Z,41.90
2018-11-02T23:56:56.625Z,41.90
2018-11-02T23:59:24.760Z,41.80
